sensor_id;sensor_type;location;lat;lon;timestamp;P1;durP1;ratioP1;P2;durP2;ratioP2
30068;SDS011;16894;49.456;10.644;2022-09-03T00:01:07;26.02;;;24.17;;
30068;SDS011;16894;49.456;10.644;2022-09-03T00:03:44;29.23;;;27.13;;
30068;SDS011;16894;49.456;10.644;2022-09-03T00:08:50;33.42;;;31.30;;
30068;SDS011;16894;49.456;10.644;2022-09-03T00:11:21;36.28;;;33.97;;
30068;SDS011;16894;49.456;10.644;2022-09-03T00:14:08;36.58;;;34.35;;
30068;SDS011;16894;49.456;10.644;2022-09-03T00:19:31;34.25;;;32.00;;
30068;SDS011;16894;49.456;10.644;2022-09-03T00:22:13;38.95;;;36.35;;
30068;SDS011;16894;49.456;10.644;2022-09-03T00:24:43;39.40;;;36.83;;
30068;SDS011;16894;49.456;10.644;2022-09-03T00:27:28;34.58;;;32.38;;
30068;SDS011;16894;49.456;10.644;2022-09-03T00:30:18;37.20;;;34.58;;
30068;SDS011;16894;49.456;10.644;2022-09-03T00:32:49;36.42;;;33.70;;
30068;SDS011;16894;49.456;10.644;2022-09-03T00:35:24;31.88;;;29.85;;
30068;SDS011;16894;49.456;10.644;2022-09-03T00:37:54;30.23;;;28.27;;
30068;SDS011;16894;49.456;10.644;2022-09-03T00:51:49;27.13;;;24.95;;
30068;SDS011;16894;49.456;10.644;2022-09-03T00:54:20;27.05;;;25.25;;
30068;SDS011;16894;49.456;10.644;2022-09-03T00:59:40;26.47;;;24.77;;
30068;SDS011;16894;49.456;10.644;2022-09-03T01:12:57;23.15;;;21.65;;
30068;SDS011;16894;49.456;10.644;2022-09-03T01:23:27;21.95;;;20.45;;
30068;SDS011;16894;49.456;10.644;2022-09-03T01:26:14;22.40;;;20.92;;
30068;SDS011;16894;49.456;10.644;2022-09-03T01:31:45;21.80;;;19.90;;
30068;SDS011;16894;49.456;10.644;2022-09-03T01:42:55;21.77;;;19.52;;
30068;SDS011;16894;49.456;10.644;2022-09-03T01:45:40;18.48;;;17.27;;
30068;SDS011;16894;49.456;10.644;2022-09-03T01:51:25;19.77;;;18.48;;
30068;SDS011;16894;49.456;10.644;2022-09-03T01:57:11;18.05;;;16.85;;
30068;SDS011;16894;49.456;10.644;2022-09-03T01:59:45;14.95;;;14.00;;
30068;SDS011;16894;49.456;10.644;2022-09-03T02:02:20;17.63;;;16.48;;
30068;SDS011;16894;49.456;10.644;2022-09-03T02:04:56;18.00;;;16.40;;
30068;SDS011;16894;49.456;10.644;2022-09-03T02:07:32;17.95;;;16.27;;
30068;SDS011;16894;49.456;10.644;2022-09-03T02:10:00;15.60;;;14.50;;
30068;SDS011;16894;49.456;10.644;2022-09-03T02:12:28;18.08;;;16.75;;
30068;SDS011;16894;49.456;10.644;2022-09-03T02:15:01;15.77;;;14.68;;
30068;SDS011;16894;49.456;10.644;2022-09-03T02:17:31;15.60;;;14.48;;
30068;SDS011;16894;49.456;10.644;2022-09-03T02:19:58;14.95;;;13.75;;
30068;SDS011;16894;49.456;10.644;2022-09-03T02:22:31;14.70;;;13.57;;
30068;SDS011;16894;49.456;10.644;2022-09-03T02:24:58;15.05;;;13.90;;
30068;SDS011;16894;49.456;10.644;2022-09-03T02:27:24;15.35;;;14.05;;
30068;SDS011;16894;49.456;10.644;2022-09-03T02:29:51;14.73;;;13.63;;
30068;SDS011;16894;49.456;10.644;2022-09-03T02:32:17;13.27;;;12.27;;
30068;SDS011;16894;49.456;10.644;2022-09-03T02:34:43;13.70;;;12.60;;
30068;SDS011;16894;49.456;10.644;2022-09-03T02:37:12;10.93;;;10.13;;
30068;SDS011;16894;49.456;10.644;2022-09-03T02:39:40;11.73;;;10.65;;
30068;SDS011;16894;49.456;10.644;2022-09-03T02:42:05;12.03;;;10.57;;
30068;SDS011;16894;49.456;10.644;2022-09-03T02:44:34;11.00;;;9.82;;
30068;SDS011;16894;49.456;10.644;2022-09-03T02:47:04;10.00;;;9.20;;
30068;SDS011;16894;49.456;10.644;2022-09-03T02:49:32;8.02;;;7.43;;
30068;SDS011;16894;49.456;10.644;2022-09-03T02:51:58;8.65;;;7.85;;
30068;SDS011;16894;49.456;10.644;2022-09-03T02:54:25;14.80;;;6.72;;
30068;SDS011;16894;49.456;10.644;2022-09-03T02:56:52;8.90;;;6.65;;
30068;SDS011;16894;49.456;10.644;2022-09-03T02:59:18;7.38;;;6.65;;
30068;SDS011;16894;49.456;10.644;2022-09-03T03:01:46;6.78;;;6.25;;
30068;SDS011;16894;49.456;10.644;2022-09-03T03:04:12;8.63;;;6.70;;
30068;SDS011;16894;49.456;10.644;2022-09-03T03:06:49;7.43;;;5.68;;
30068;SDS011;16894;49.456;10.644;2022-09-03T03:09:15;8.60;;;4.93;;
30068;SDS011;16894;49.456;10.644;2022-09-03T03:11:41;9.98;;;5.80;;
30068;SDS011;16894;49.456;10.644;2022-09-03T03:14:07;7.10;;;5.83;;
30068;SDS011;16894;49.456;10.644;2022-09-03T03:16:34;6.45;;;5.90;;
30068;SDS011;16894;49.456;10.644;2022-09-03T03:19:00;6.53;;;5.80;;
30068;SDS011;16894;49.456;10.644;2022-09-03T03:21:25;5.97;;;5.37;;
30068;SDS011;16894;49.456;10.644;2022-09-03T03:23:52;6.03;;;5.53;;
30068;SDS011;16894;49.456;10.644;2022-09-03T03:26:19;8.80;;;7.25;;
30068;SDS011;16894;49.456;10.644;2022-09-03T03:28:46;8.70;;;7.90;;
30068;SDS011;16894;49.456;10.644;2022-09-03T03:31:16;8.10;;;7.38;;
30068;SDS011;16894;49.456;10.644;2022-09-03T03:33:43;8.30;;;7.60;;
30068;SDS011;16894;49.456;10.644;2022-09-03T03:36:10;8.17;;;7.53;;
30068;SDS011;16894;49.456;10.644;2022-09-03T03:38:41;11.43;;;8.07;;
30068;SDS011;16894;49.456;10.644;2022-09-03T03:41:16;11.20;;;8.93;;
30068;SDS011;16894;49.456;10.644;2022-09-03T03:43:43;9.65;;;8.00;;
30068;SDS011;16894;49.456;10.644;2022-09-03T03:46:11;9.60;;;7.63;;
30068;SDS011;16894;49.456;10.644;2022-09-03T03:48:38;9.05;;;7.88;;
30068;SDS011;16894;49.456;10.644;2022-09-03T03:51:06;8.32;;;7.53;;
30068;SDS011;16894;49.456;10.644;2022-09-03T03:53:34;9.05;;;6.75;;
30068;SDS011;16894;49.456;10.644;2022-09-03T03:56:02;8.23;;;7.57;;
30068;SDS011;16894;49.456;10.644;2022-09-03T03:58:31;12.43;;;7.47;;
30068;SDS011;16894;49.456;10.644;2022-09-03T04:01:04;8.55;;;7.85;;
30068;SDS011;16894;49.456;10.644;2022-09-03T04:03:31;8.35;;;7.65;;
30068;SDS011;16894;49.456;10.644;2022-09-03T04:05:58;10.00;;;9.18;;
30068;SDS011;16894;49.456;10.644;2022-09-03T04:08:28;8.25;;;7.55;;
30068;SDS011;16894;49.456;10.644;2022-09-03T04:13:23;8.30;;;7.35;;
30068;SDS011;16894;49.456;10.644;2022-09-03T04:15:49;6.43;;;5.88;;
30068;SDS011;16894;49.456;10.644;2022-09-03T04:18:15;11.25;;;7.63;;
30068;SDS011;16894;49.456;10.644;2022-09-03T04:20:41;10.90;;;7.13;;
30068;SDS011;16894;49.456;10.644;2022-09-03T04:23:06;9.90;;;8.73;;
30068;SDS011;16894;49.456;10.644;2022-09-03T04:25:32;7.27;;;6.77;;
30068;SDS011;16894;49.456;10.644;2022-09-03T04:27:58;13.90;;;7.27;;
30068;SDS011;16894;49.456;10.644;2022-09-03T04:30:24;6.00;;;5.53;;
30068;SDS011;16894;49.456;10.644;2022-09-03T04:32:51;7.78;;;7.05;;
30068;SDS011;16894;49.456;10.644;2022-09-03T04:35:17;8.43;;;6.27;;
30068;SDS011;16894;49.456;10.644;2022-09-03T04:37:47;9.55;;;5.95;;
30068;SDS011;16894;49.456;10.644;2022-09-03T04:40:13;6.20;;;5.80;;
30068;SDS011;16894;49.456;10.644;2022-09-03T04:42:39;7.75;;;7.15;;
30068;SDS011;16894;49.456;10.644;2022-09-03T04:45:06;7.65;;;6.95;;
30068;SDS011;16894;49.456;10.644;2022-09-03T04:47:32;9.00;;;7.95;;
30068;SDS011;16894;49.456;10.644;2022-09-03T04:50:00;7.57;;;6.97;;
30068;SDS011;16894;49.456;10.644;2022-09-03T04:52:27;7.40;;;6.57;;
30068;SDS011;16894;49.456;10.644;2022-09-03T04:54:55;8.50;;;7.55;;
30068;SDS011;16894;49.456;10.644;2022-09-03T04:57:21;8.05;;;7.32;;
30068;SDS011;16894;49.456;10.644;2022-09-03T04:59:47;12.07;;;7.93;;
30068;SDS011;16894;49.456;10.644;2022-09-03T05:02:13;7.83;;;7.03;;
30068;SDS011;16894;49.456;10.644;2022-09-03T05:04:39;14.35;;;6.85;;
30068;SDS011;16894;49.456;10.644;2022-09-03T05:07:06;9.73;;;7.75;;
30068;SDS011;16894;49.456;10.644;2022-09-03T05:09:32;10.63;;;6.90;;
30068;SDS011;16894;49.456;10.644;2022-09-03T05:11:58;8.38;;;7.65;;
30068;SDS011;16894;49.456;10.644;2022-09-03T05:14:25;8.30;;;7.70;;
30068;SDS011;16894;49.456;10.644;2022-09-03T05:16:50;8.80;;;7.97;;
30068;SDS011;16894;49.456;10.644;2022-09-03T05:19:16;7.95;;;7.25;;
30068;SDS011;16894;49.456;10.644;2022-09-03T05:21:42;12.38;;;8.07;;
30068;SDS011;16894;49.456;10.644;2022-09-03T05:24:09;8.52;;;7.72;;
30068;SDS011;16894;49.456;10.644;2022-09-03T05:26:37;9.27;;;8.02;;
30068;SDS011;16894;49.456;10.644;2022-09-03T05:29:04;10.15;;;7.63;;
30068;SDS011;16894;49.456;10.644;2022-09-03T05:31:35;8.55;;;7.75;;
30068;SDS011;16894;49.456;10.644;2022-09-03T05:34:05;8.75;;;7.97;;
30068;SDS011;16894;49.456;10.644;2022-09-03T05:36:32;10.98;;;9.63;;
30068;SDS011;16894;49.456;10.644;2022-09-03T05:39:00;9.73;;;8.73;;
30068;SDS011;16894;49.456;10.644;2022-09-03T05:41:26;12.50;;;9.45;;
30068;SDS011;16894;49.456;10.644;2022-09-03T05:43:53;9.60;;;8.35;;
30068;SDS011;16894;49.456;10.644;2022-09-03T05:46:21;11.63;;;10.05;;
30068;SDS011;16894;49.456;10.644;2022-09-03T05:48:51;8.73;;;7.93;;
30068;SDS011;16894;49.456;10.644;2022-09-03T05:51:17;10.45;;;9.43;;
30068;SDS011;16894;49.456;10.644;2022-09-03T05:53:44;9.60;;;8.70;;
30068;SDS011;16894;49.456;10.644;2022-09-03T05:56:21;10.25;;;8.35;;
30068;SDS011;16894;49.456;10.644;2022-09-03T05:58:49;14.35;;;9.00;;
30068;SDS011;16894;49.456;10.644;2022-09-03T06:03:47;12.32;;;9.85;;
30068;SDS011;16894;49.456;10.644;2022-09-03T06:06:36;10.68;;;9.75;;
30068;SDS011;16894;49.456;10.644;2022-09-03T06:09:07;16.25;;;13.13;;
30068;SDS011;16894;49.456;10.644;2022-09-03T06:11:35;13.63;;;12.13;;
30068;SDS011;16894;49.456;10.644;2022-09-03T06:14:02;22.10;;;13.38;;
30068;SDS011;16894;49.456;10.644;2022-09-03T06:16:30;24.98;;;13.20;;
30068;SDS011;16894;49.456;10.644;2022-09-03T06:18:57;18.65;;;14.35;;
30068;SDS011;16894;49.456;10.644;2022-09-03T06:21:23;22.33;;;15.80;;
30068;SDS011;16894;49.456;10.644;2022-09-03T06:23:49;18.60;;;16.77;;
30068;SDS011;16894;49.456;10.644;2022-09-03T06:26:17;18.80;;;15.38;;
30068;SDS011;16894;49.456;10.644;2022-09-03T06:28:44;16.95;;;15.52;;
30068;SDS011;16894;49.456;10.644;2022-09-03T06:31:13;19.13;;;17.48;;
30068;SDS011;16894;49.456;10.644;2022-09-03T06:33:40;25.40;;;23.30;;
30068;SDS011;16894;49.456;10.644;2022-09-03T06:36:09;28.60;;;26.15;;
30068;SDS011;16894;49.456;10.644;2022-09-03T06:38:40;23.77;;;21.52;;
30068;SDS011;16894;49.456;10.644;2022-09-03T06:41:10;24.02;;;22.27;;
30068;SDS011;16894;49.456;10.644;2022-09-03T06:43:39;27.08;;;22.60;;
30068;SDS011;16894;49.456;10.644;2022-09-03T06:46:10;24.40;;;22.75;;
30068;SDS011;16894;49.456;10.644;2022-09-03T06:48:38;22.67;;;20.70;;
30068;SDS011;16894;49.456;10.644;2022-09-03T06:51:11;24.00;;;22.05;;
30068;SDS011;16894;49.456;10.644;2022-09-03T06:53:43;24.02;;;21.90;;
30068;SDS011;16894;49.456;10.644;2022-09-03T06:56:20;25.90;;;24.05;;
30068;SDS011;16894;49.456;10.644;2022-09-03T06:58:56;25.60;;;23.85;;
30068;SDS011;16894;49.456;10.644;2022-09-03T07:01:27;27.58;;;25.23;;
30068;SDS011;16894;49.456;10.644;2022-09-03T07:03:56;27.17;;;24.90;;
30068;SDS011;16894;49.456;10.644;2022-09-03T07:06:25;29.60;;;27.10;;
30068;SDS011;16894;49.456;10.644;2022-09-03T07:08:53;31.33;;;29.15;;
30068;SDS011;16894;49.456;10.644;2022-09-03T07:11:24;29.60;;;27.63;;
30068;SDS011;16894;49.456;10.644;2022-09-03T07:13:53;33.58;;;31.20;;
30068;SDS011;16894;49.456;10.644;2022-09-03T07:16:24;31.38;;;28.98;;
30068;SDS011;16894;49.456;10.644;2022-09-03T07:19:00;35.17;;;32.88;;
30068;SDS011;16894;49.456;10.644;2022-09-03T07:21:28;32.83;;;30.80;;
30068;SDS011;16894;49.456;10.644;2022-09-03T07:23:54;29.65;;;27.65;;
30068;SDS011;16894;49.456;10.644;2022-09-03T07:28:48;30.55;;;28.50;;
30068;SDS011;16894;49.456;10.644;2022-09-03T07:31:16;21.48;;;19.98;;
30068;SDS011;16894;49.456;10.644;2022-09-03T07:33:47;18.90;;;17.33;;
30068;SDS011;16894;49.456;10.644;2022-09-03T07:36:14;16.55;;;15.52;;
30068;SDS011;16894;49.456;10.644;2022-09-03T07:38:41;21.55;;;19.63;;
30068;SDS011;16894;49.456;10.644;2022-09-03T07:41:12;22.48;;;21.05;;
30068;SDS011;16894;49.456;10.644;2022-09-03T07:43:42;31.63;;;29.10;;
30068;SDS011;16894;49.456;10.644;2022-09-03T07:46:11;34.05;;;31.30;;
30068;SDS011;16894;49.456;10.644;2022-09-03T07:48:39;32.30;;;29.60;;
30068;SDS011;16894;49.456;10.644;2022-09-03T07:51:06;38.88;;;36.42;;
30068;SDS011;16894;49.456;10.644;2022-09-03T07:56:05;26.42;;;24.77;;
30068;SDS011;16894;49.456;10.644;2022-09-03T07:58:32;32.80;;;30.70;;
30068;SDS011;16894;49.456;10.644;2022-09-03T08:01:03;34.60;;;32.05;;
30068;SDS011;16894;49.456;10.644;2022-09-03T08:03:32;36.03;;;33.50;;
30068;SDS011;16894;49.456;10.644;2022-09-03T08:06:02;39.08;;;36.47;;
30068;SDS011;16894;49.456;10.644;2022-09-03T08:08:30;38.60;;;35.78;;
30068;SDS011;16894;49.456;10.644;2022-09-03T08:11:18;40.13;;;37.05;;
30068;SDS011;16894;49.456;10.644;2022-09-03T08:13:56;40.90;;;38.40;;
30068;SDS011;16894;49.456;10.644;2022-09-03T08:16:30;39.83;;;37.20;;
30068;SDS011;16894;49.456;10.644;2022-09-03T08:18:57;41.17;;;37.63;;
30068;SDS011;16894;49.456;10.644;2022-09-03T08:23:51;30.67;;;28.35;;
30068;SDS011;16894;49.456;10.644;2022-09-03T08:26:19;42.28;;;39.25;;
30068;SDS011;16894;49.456;10.644;2022-09-03T08:28:46;44.28;;;41.20;;
30068;SDS011;16894;49.456;10.644;2022-09-03T08:33:48;46.03;;;42.78;;
30068;SDS011;16894;49.456;10.644;2022-09-03T08:38:52;37.63;;;35.15;;
30068;SDS011;16894;49.456;10.644;2022-09-03T08:54:44;51.55;;;47.45;;
30068;SDS011;16894;49.456;10.644;2022-09-03T08:57:11;43.67;;;40.67;;
30068;SDS011;16894;49.456;10.644;2022-09-03T08:59:38;45.50;;;42.08;;
30068;SDS011;16894;49.456;10.644;2022-09-03T09:02:09;42.53;;;39.17;;
30068;SDS011;16894;49.456;10.644;2022-09-03T09:21:16;20.50;;;18.92;;
30068;SDS011;16894;49.456;10.644;2022-09-03T09:23:47;17.02;;;15.82;;
30068;SDS011;16894;49.456;10.644;2022-09-03T09:26:15;9.93;;;9.25;;
30068;SDS011;16894;49.456;10.644;2022-09-03T09:28:44;7.07;;;6.57;;
30068;SDS011;16894;49.456;10.644;2022-09-03T09:31:16;6.32;;;5.78;;
30068;SDS011;16894;49.456;10.644;2022-09-03T09:33:45;6.88;;;6.03;;
30068;SDS011;16894;49.456;10.644;2022-09-03T09:36:12;4.93;;;4.45;;
30068;SDS011;16894;49.456;10.644;2022-09-03T09:38:41;5.70;;;4.68;;
30068;SDS011;16894;49.456;10.644;2022-09-03T09:41:19;4.53;;;4.22;;
30068;SDS011;16894;49.456;10.644;2022-09-03T09:43:47;5.97;;;4.30;;
30068;SDS011;16894;49.456;10.644;2022-09-03T09:46:24;4.57;;;4.18;;
30068;SDS011;16894;49.456;10.644;2022-09-03T09:48:56;5.30;;;4.72;;
30068;SDS011;16894;49.456;10.644;2022-09-03T09:51:29;4.53;;;4.13;;
30068;SDS011;16894;49.456;10.644;2022-09-03T09:54:00;5.47;;;4.15;;
30068;SDS011;16894;49.456;10.644;2022-09-03T09:56:27;5.28;;;4.03;;
30068;SDS011;16894;49.456;10.644;2022-09-03T10:01:28;6.53;;;4.65;;
30068;SDS011;16894;49.456;10.644;2022-09-03T10:03:58;7.13;;;4.32;;
30068;SDS011;16894;49.456;10.644;2022-09-03T10:06:31;6.38;;;4.25;;
30068;SDS011;16894;49.456;10.644;2022-09-03T10:09:18;5.38;;;4.97;;
30068;SDS011;16894;49.456;10.644;2022-09-03T10:11:52;10.13;;;5.97;;
30068;SDS011;16894;49.456;10.644;2022-09-03T10:14:41;6.40;;;4.60;;
30068;SDS011;16894;49.456;10.644;2022-09-03T10:19:59;7.18;;;6.35;;
30068;SDS011;16894;49.456;10.644;2022-09-03T10:22:51;8.32;;;7.63;;
30068;SDS011;16894;49.456;10.644;2022-09-03T10:25:20;11.00;;;10.00;;
30068;SDS011;16894;49.456;10.644;2022-09-03T10:27:50;12.27;;;9.82;;
30068;SDS011;16894;49.456;10.644;2022-09-03T10:30:18;11.20;;;10.20;;
30068;SDS011;16894;49.456;10.644;2022-09-03T10:40:39;6.32;;;5.72;;
30068;SDS011;16894;49.456;10.644;2022-09-03T10:43:32;6.57;;;5.85;;
30068;SDS011;16894;49.456;10.644;2022-09-03T10:51:35;14.80;;;10.60;;
30068;SDS011;16894;49.456;10.644;2022-09-03T10:54:18;16.30;;;15.05;;
30068;SDS011;16894;49.456;10.644;2022-09-03T10:57:00;17.17;;;15.98;;
30068;SDS011;16894;49.456;10.644;2022-09-03T11:07:40;19.42;;;17.60;;
30068;SDS011;16894;49.456;10.644;2022-09-03T11:13:09;19.05;;;17.70;;
30068;SDS011;16894;49.456;10.644;2022-09-03T11:15:52;22.25;;;20.65;;
30068;SDS011;16894;49.456;10.644;2022-09-03T11:18:33;20.33;;;19.00;;
30068;SDS011;16894;49.456;10.644;2022-09-03T11:21:16;17.13;;;15.77;;
30068;SDS011;16894;49.456;10.644;2022-09-03T11:23:47;13.88;;;12.88;;
30068;SDS011;16894;49.456;10.644;2022-09-03T11:26:18;13.32;;;12.32;;
30068;SDS011;16894;49.456;10.644;2022-09-03T11:42:38;17.23;;;16.02;;
30068;SDS011;16894;49.456;10.644;2022-09-03T11:47:41;14.38;;;13.05;;
30068;SDS011;16894;49.456;10.644;2022-09-03T11:50:30;10.60;;;9.70;;
30068;SDS011;16894;49.456;10.644;2022-09-03T11:53:09;11.88;;;10.98;;
30068;SDS011;16894;49.456;10.644;2022-09-03T11:55:58;14.07;;;9.35;;
30068;SDS011;16894;49.456;10.644;2022-09-03T11:58:34;12.02;;;10.90;;
30068;SDS011;16894;49.456;10.644;2022-09-03T12:01:07;14.00;;;12.73;;
30068;SDS011;16894;49.456;10.644;2022-09-03T12:03:48;13.10;;;12.10;;
30068;SDS011;16894;49.456;10.644;2022-09-03T12:07:01;13.75;;;12.52;;
30068;SDS011;16894;49.456;10.644;2022-09-03T12:11:55;16.63;;;14.85;;
30068;SDS011;16894;49.456;10.644;2022-09-03T12:23:05;22.27;;;20.08;;
30068;SDS011;16894;49.456;10.644;2022-09-03T12:25:32;19.60;;;17.85;;
30068;SDS011;16894;49.456;10.644;2022-09-03T12:27:59;23.73;;;21.25;;
30068;SDS011;16894;49.456;10.644;2022-09-03T12:30:28;18.20;;;16.67;;
30068;SDS011;16894;49.456;10.644;2022-09-03T12:33:04;20.40;;;18.80;;
30068;SDS011;16894;49.456;10.644;2022-09-03T12:35:31;19.48;;;18.05;;
30068;SDS011;16894;49.456;10.644;2022-09-03T12:40:24;16.80;;;15.48;;
30068;SDS011;16894;49.456;10.644;2022-09-03T12:42:51;16.15;;;14.95;;
30068;SDS011;16894;49.456;10.644;2022-09-03T12:45:25;18.30;;;16.77;;
30068;SDS011;16894;49.456;10.644;2022-09-03T12:47:51;18.30;;;16.70;;
30068;SDS011;16894;49.456;10.644;2022-09-03T12:50:18;21.58;;;20.05;;
30068;SDS011;16894;49.456;10.644;2022-09-03T12:52:50;17.42;;;15.98;;
30068;SDS011;16894;49.456;10.644;2022-09-03T12:55:32;17.35;;;15.82;;
30068;SDS011;16894;49.456;10.644;2022-09-03T13:00:48;17.40;;;16.10;;
30068;SDS011;16894;49.456;10.644;2022-09-03T13:03:28;18.52;;;14.68;;
30068;SDS011;16894;49.456;10.644;2022-09-03T13:05:59;19.52;;;17.70;;
30068;SDS011;16894;49.456;10.644;2022-09-03T13:08:52;19.73;;;17.73;;
30068;SDS011;16894;49.456;10.644;2022-09-03T13:11:23;15.65;;;14.35;;
30068;SDS011;16894;49.456;10.644;2022-09-03T13:14:02;16.10;;;14.50;;
30068;SDS011;16894;49.456;10.644;2022-09-03T13:21:38;21.67;;;15.85;;
30068;SDS011;16894;49.456;10.644;2022-09-03T13:30:03;9.40;;;6.50;;
30068;SDS011;16894;49.456;10.644;2022-09-03T13:35:29;7.05;;;5.05;;
30068;SDS011;16894;49.456;10.644;2022-09-03T13:41:11;4.95;;;4.45;;
30068;SDS011;16894;49.456;10.644;2022-09-03T13:46:45;5.70;;;4.43;;
30068;SDS011;16894;49.456;10.644;2022-09-03T13:49:21;8.10;;;5.20;;
30068;SDS011;16894;49.456;10.644;2022-09-03T13:52:37;6.70;;;4.50;;
30068;SDS011;16894;49.456;10.644;2022-09-03T13:55:25;7.15;;;5.63;;
30068;SDS011;16894;49.456;10.644;2022-09-03T13:57:56;9.23;;;5.22;;
30068;SDS011;16894;49.456;10.644;2022-09-03T14:00:42;5.15;;;4.68;;
30068;SDS011;16894;49.456;10.644;2022-09-03T14:11:22;7.22;;;5.32;;
30068;SDS011;16894;49.456;10.644;2022-09-03T14:17:02;7.13;;;5.22;;
30068;SDS011;16894;49.456;10.644;2022-09-03T14:25:50;14.52;;;6.20;;
30068;SDS011;16894;49.456;10.644;2022-09-03T14:31:22;9.18;;;5.50;;
30068;SDS011;16894;49.456;10.644;2022-09-03T14:34:17;12.82;;;5.82;;
30068;SDS011;16894;49.456;10.644;2022-09-03T14:37:08;8.20;;;5.80;;
30068;SDS011;16894;49.456;10.644;2022-09-03T14:39:59;8.68;;;7.30;;
30068;SDS011;16894;49.456;10.644;2022-09-03T14:42:42;6.53;;;5.93;;
30068;SDS011;16894;49.456;10.644;2022-09-03T14:45:33;6.97;;;6.30;;
30068;SDS011;16894;49.456;10.644;2022-09-03T14:48:25;8.85;;;8.05;;
30068;SDS011;16894;49.456;10.644;2022-09-03T14:54:18;11.52;;;7.43;;
30068;SDS011;16894;49.456;10.644;2022-09-03T14:56:49;9.95;;;8.95;;
30068;SDS011;16894;49.456;10.644;2022-09-03T15:07:59;18.13;;;16.25;;
30068;SDS011;16894;49.456;10.644;2022-09-03T15:10:54;23.17;;;21.50;;
30068;SDS011;16894;49.456;10.644;2022-09-03T15:22:18;18.35;;;16.48;;
30068;SDS011;16894;49.456;10.644;2022-09-03T15:30:12;19.13;;;17.15;;
30068;SDS011;16894;49.456;10.644;2022-09-03T15:38:02;16.48;;;6.30;;
30068;SDS011;16894;49.456;10.644;2022-09-03T15:43:22;8.68;;;7.85;;
30068;SDS011;16894;49.456;10.644;2022-09-03T15:46:03;10.33;;;9.13;;
30068;SDS011;16894;49.456;10.644;2022-09-03T15:48:50;8.65;;;7.95;;
30068;SDS011;16894;49.456;10.644;2022-09-03T15:56:53;11.52;;;9.52;;
30068;SDS011;16894;49.456;10.644;2022-09-03T15:59:45;17.02;;;10.48;;
30068;SDS011;16894;49.456;10.644;2022-09-03T16:06:02;8.35;;;7.60;;
30068;SDS011;16894;49.456;10.644;2022-09-03T16:14:22;25.00;;;16.35;;
30068;SDS011;16894;49.456;10.644;2022-09-03T16:19:51;9.20;;;7.82;;
30068;SDS011;16894;49.456;10.644;2022-09-03T16:22:37;11.13;;;7.63;;
30068;SDS011;16894;49.456;10.644;2022-09-03T16:25:18;8.10;;;6.28;;
30068;SDS011;16894;49.456;10.644;2022-09-03T16:30:21;7.40;;;6.65;;
30068;SDS011;16894;49.456;10.644;2022-09-03T16:38:17;5.85;;;5.35;;
30068;SDS011;16894;49.456;10.644;2022-09-03T16:52:11;6.65;;;5.95;;
30068;SDS011;16894;49.456;10.644;2022-09-03T16:57:55;6.05;;;4.85;;
30068;SDS011;16894;49.456;10.644;2022-09-03T17:01:07;7.38;;;6.20;;
30068;SDS011;16894;49.456;10.644;2022-09-03T17:06:38;10.48;;;6.60;;
30068;SDS011;16894;49.456;10.644;2022-09-03T17:17:46;6.75;;;6.05;;
30068;SDS011;16894;49.456;10.644;2022-09-03T17:20:36;9.50;;;7.20;;
30068;SDS011;16894;49.456;10.644;2022-09-03T17:23:59;11.55;;;7.50;;
30068;SDS011;16894;49.456;10.644;2022-09-03T17:26:20;8.68;;;7.88;;
30068;SDS011;16894;49.456;10.644;2022-09-03T17:31:45;7.50;;;6.80;;
30068;SDS011;16894;49.456;10.644;2022-09-03T17:45:44;13.10;;;10.75;;
30068;SDS011;16894;49.456;10.644;2022-09-03T17:51:06;13.35;;;9.40;;
30068;SDS011;16894;49.456;10.644;2022-09-03T17:53:43;13.45;;;10.52;;
30068;SDS011;16894;49.456;10.644;2022-09-03T17:56:19;15.68;;;13.05;;
30068;SDS011;16894;49.456;10.644;2022-09-03T17:59:02;16.38;;;14.25;;
30068;SDS011;16894;49.456;10.644;2022-09-03T18:01:44;14.00;;;12.73;;
30068;SDS011;16894;49.456;10.644;2022-09-03T18:04:30;16.38;;;15.00;;
30068;SDS011;16894;49.456;10.644;2022-09-03T18:18:00;10.98;;;9.98;;
30068;SDS011;16894;49.456;10.644;2022-09-03T18:20:38;15.90;;;14.50;;
30068;SDS011;16894;49.456;10.644;2022-09-03T18:26:59;22.50;;;14.38;;
30068;SDS011;16894;49.456;10.644;2022-09-03T18:29:54;19.55;;;17.65;;
30068;SDS011;16894;49.456;10.644;2022-09-03T18:32:51;18.92;;;17.25;;
30068;SDS011;16894;49.456;10.644;2022-09-03T18:35:35;18.20;;;16.55;;
30068;SDS011;16894;49.456;10.644;2022-09-03T18:38:24;23.92;;;21.63;;
30068;SDS011;16894;49.456;10.644;2022-09-03T18:54:13;22.63;;;20.65;;
30068;SDS011;16894;49.456;10.644;2022-09-03T18:57:24;23.40;;;21.33;;
30068;SDS011;16894;49.456;10.644;2022-09-03T19:00:13;27.70;;;25.02;;
30068;SDS011;16894;49.456;10.644;2022-09-03T19:14:58;26.05;;;23.73;;
30068;SDS011;16894;49.456;10.644;2022-09-03T19:21:19;24.23;;;21.77;;
30068;SDS011;16894;49.456;10.644;2022-09-03T19:24:05;23.33;;;21.23;;
30068;SDS011;16894;49.456;10.644;2022-09-03T19:27:02;26.13;;;23.70;;
30068;SDS011;16894;49.456;10.644;2022-09-03T19:36:15;21.60;;;19.33;;
30068;SDS011;16894;49.456;10.644;2022-09-03T19:39:16;27.20;;;20.70;;
30068;SDS011;16894;49.456;10.644;2022-09-03T19:42:09;20.77;;;18.85;;
30068;SDS011;16894;49.456;10.644;2022-09-03T19:51:24;22.65;;;20.45;;
30068;SDS011;16894;49.456;10.644;2022-09-03T19:54:18;21.60;;;19.55;;
30068;SDS011;16894;49.456;10.644;2022-09-03T19:57:06;21.70;;;19.48;;
30068;SDS011;16894;49.456;10.644;2022-09-03T20:02:39;22.15;;;19.30;;
30068;SDS011;16894;49.456;10.644;2022-09-03T20:05:24;22.00;;;19.88;;
30068;SDS011;16894;49.456;10.644;2022-09-03T20:08:11;25.75;;;22.90;;
30068;SDS011;16894;49.456;10.644;2022-09-03T20:10:58;22.90;;;19.30;;
30068;SDS011;16894;49.456;10.644;2022-09-03T20:13:26;22.15;;;19.88;;
30068;SDS011;16894;49.456;10.644;2022-09-03T20:16:05;21.20;;;19.23;;
30068;SDS011;16894;49.456;10.644;2022-09-03T20:21:27;23.15;;;20.73;;
30068;SDS011;16894;49.456;10.644;2022-09-03T20:27:15;26.13;;;21.27;;
30068;SDS011;16894;49.456;10.644;2022-09-03T20:37:57;26.33;;;23.60;;
30068;SDS011;16894;49.456;10.644;2022-09-03T20:49:34;26.02;;;19.15;;
30068;SDS011;16894;49.456;10.644;2022-09-03T20:52:24;23.05;;;20.45;;
30068;SDS011;16894;49.456;10.644;2022-09-03T20:55:20;22.77;;;19.38;;
30068;SDS011;16894;49.456;10.644;2022-09-03T21:00:38;31.83;;;18.33;;
30068;SDS011;16894;49.456;10.644;2022-09-03T21:03:29;23.33;;;20.83;;
30068;SDS011;16894;49.456;10.644;2022-09-03T21:12:02;31.25;;;22.23;;
30068;SDS011;16894;49.456;10.644;2022-09-03T21:14:47;34.83;;;23.55;;
30068;SDS011;16894;49.456;10.644;2022-09-03T21:23:17;30.90;;;21.63;;
30068;SDS011;16894;49.456;10.644;2022-09-03T21:25:54;26.65;;;23.25;;
30068;SDS011;16894;49.456;10.644;2022-09-03T21:28:40;35.33;;;22.95;;
30068;SDS011;16894;49.456;10.644;2022-09-03T21:31:21;36.78;;;22.73;;
30068;SDS011;16894;49.456;10.644;2022-09-03T21:33:54;28.70;;;22.45;;
30068;SDS011;16894;49.456;10.644;2022-09-03T21:36:28;27.92;;;22.52;;
30068;SDS011;16894;49.456;10.644;2022-09-03T21:38:58;31.58;;;23.95;;
30068;SDS011;16894;49.456;10.644;2022-09-03T21:41:43;34.20;;;23.42;;
30068;SDS011;16894;49.456;10.644;2022-09-03T21:44:41;31.98;;;22.80;;